sensor_id;sensor_type;location;lat;lon;timestamp;pressure;altitude;pressure_sealevel;temperature;humidity
18813;BME280;9534;51.140;6.296;2023-12-20T00:01:18;67563.59;;;7.66;100.00
18813;BME280;9534;51.140;6.296;2023-12-20T00:05:21;67549.56;;;7.66;100.00
18813;BME280;9534;51.140;6.296;2023-12-20T00:09:24;67547.97;;;7.57;100.00
18813;BME280;9534;51.140;6.296;2023-12-20T00:13:27;67539.88;;;7.48;100.00
18813;BME280;9534;51.140;6.296;2023-12-20T00:17:32;67527.47;;;7.39;100.00
18813;BME280;9534;51.140;6.296;2023-12-20T00:21:35;67536.44;;;7.45;100.00
18813;BME280;9534;51.140;6.296;2023-12-20T00:25:38;67536.03;;;7.47;100.00
18813;BME280;9534;51.140;6.296;2023-12-20T00:29:42;67546.69;;;7.54;100.00
18813;BME280;9534;51.140;6.296;2023-12-20T00:33:50;67544.41;;;7.52;100.00
18813;BME280;9534;51.140;6.296;2023-12-20T00:37:54;67543.41;;;7.53;100.00
18813;BME280;9534;51.140;6.296;2023-12-20T00:41:57;67522.38;;;7.35;100.00
18813;BME280;9534;51.140;6.296;2023-12-20T00:46:00;67510.84;;;7.23;100.00
18813;BME280;9534;51.140;6.296;2023-12-20T00:50:05;67498.22;;;7.19;100.00
18813;BME280;9534;51.140;6.296;2023-12-20T00:54:08;67499.06;;;7.15;100.00
18813;BME280;9534;51.140;6.296;2023-12-20T00:58:11;67489.25;;;7.13;100.00
18813;BME280;9534;51.140;6.296;2023-12-20T01:02:17;67500.75;;;7.16;100.00
18813;BME280;9534;51.140;6.296;2023-12-20T01:06:22;67480.28;;;6.98;100.00
18813;BME280;9534;51.140;6.296;2023-12-20T01:10:25;67464.66;;;6.89;100.00
18813;BME280;9534;51.140;6.296;2023-12-20T01:14:29;67462.09;;;6.82;100.00
18813;BME280;9534;51.140;6.296;2023-12-20T01:18:33;67454.53;;;6.73;100.00
18813;BME280;9534;51.140;6.296;2023-12-20T01:22:38;67446.59;;;6.66;100.00
18813;BME280;9534;51.140;6.296;2023-12-20T01:26:41;67429.81;;;6.56;100.00
18813;BME280;9534;51.140;6.296;2023-12-20T01:30:44;67427.69;;;6.57;100.00
18813;BME280;9534;51.140;6.296;2023-12-20T01:34:47;67428.28;;;6.57;100.00
18813;BME280;9534;51.140;6.296;2023-12-20T01:38:52;67409.53;;;6.41;100.00
18813;BME280;9534;51.140;6.296;2023-12-20T01:42:58;67410.19;;;6.34;100.00
18813;BME280;9534;51.140;6.296;2023-12-20T01:47:02;67398.41;;;6.26;100.00
18813;BME280;9534;51.140;6.296;2023-12-20T01:51:05;67390.03;;;6.21;100.00
18813;BME280;9534;51.140;6.296;2023-12-20T01:55:10;67375.84;;;6.09;100.00
18813;BME280;9534;51.140;6.296;2023-12-20T01:59:15;67367.47;;;6.04;100.00
18813;BME280;9534;51.140;6.296;2023-12-20T02:03:18;67364.34;;;5.97;100.00
18813;BME280;9534;51.140;6.296;2023-12-20T02:07:22;67373.69;;;6.00;100.00
18813;BME280;9534;51.140;6.296;2023-12-20T02:11:27;67366.03;;;5.98;100.00
18813;BME280;9534;51.140;6.296;2023-12-20T02:15:30;67371.00;;;6.00;100.00
18813;BME280;9534;51.140;6.296;2023-12-20T02:19:33;67363.34;;;5.98;100.00
18813;BME280;9534;51.140;6.296;2023-12-20T02:23:38;67358.38;;;5.96;100.00
18813;BME280;9534;51.140;6.296;2023-12-20T02:27:41;67362.78;;;5.98;100.00
18813;BME280;9534;51.140;6.296;2023-12-20T02:31:45;67366.91;;;6.04;100.00
18813;BME280;9534;51.140;6.296;2023-12-20T02:35:48;67375.66;;;6.07;100.00
18813;BME280;9534;51.140;6.296;2023-12-20T02:39:52;67362.78;;;5.98;100.00
18813;BME280;9534;51.140;6.296;2023-12-20T02:43:55;67363.59;;;5.94;100.00
18813;BME280;9534;51.140;6.296;2023-12-20T02:47:59;67355.25;;;5.89;100.00
18813;BME280;9534;51.140;6.296;2023-12-20T02:52:02;67351.22;;;5.85;100.00
18813;BME280;9534;51.140;6.296;2023-12-20T02:56:07;67345.84;;;5.85;100.00
18813;BME280;9534;51.140;6.296;2023-12-20T03:00:10;67349.38;;;5.81;100.00
18813;BME280;9534;51.140;6.296;2023-12-20T03:04:14;67355.25;;;5.89;100.00
18813;BME280;9534;51.140;6.296;2023-12-20T03:08:17;67352.94;;;5.87;100.00
18813;BME280;9534;51.140;6.296;2023-12-20T03:12:21;67356.38;;;5.90;100.00
18813;BME280;9534;51.140;6.296;2023-12-20T03:16:24;67358.47;;;5.89;100.00
18813;BME280;9534;51.140;6.296;2023-12-20T03:20:28;67356.78;;;5.88;100.00
18813;BME280;9534;51.140;6.296;2023-12-20T03:24:32;67356.06;;;5.85;100.00
18813;BME280;9534;51.140;6.296;2023-12-20T03:28:37;67349.53;;;5.84;100.00
18813;BME280;9534;51.140;6.296;2023-12-20T03:32:41;67349.53;;;5.84;100.00
18813;BME280;9534;51.140;6.296;2023-12-20T03:36:44;67350.09;;;5.84;100.00
18813;BME280;9534;51.140;6.296;2023-12-20T03:40:49;67351.09;;;5.83;100.00
18813;BME280;9534;51.140;6.296;2023-12-20T03:44:54;67337.03;;;5.73;100.00
18813;BME280;9534;51.140;6.296;2023-12-20T03:48:57;67344.81;;;5.77;100.00
18813;BME280;9534;51.140;6.296;2023-12-20T03:53:05;67342.72;;;5.78;100.00
18813;BME280;9534;51.140;6.296;2023-12-20T03:57:08;67340.44;;;5.76;100.00
18813;BME280;9534;51.140;6.296;2023-12-20T04:01:12;67337.03;;;5.73;100.00
18813;BME280;9534;51.140;6.296;2023-12-20T04:05:15;67335.19;;;5.69;100.00
18813;BME280;9534;51.140;6.296;2023-12-20T04:09:19;67324.41;;;5.59;100.00
18813;BME280;9534;51.140;6.296;2023-12-20T04:13:22;67313.59;;;5.50;100.00
18813;BME280;9534;51.140;6.296;2023-12-20T04:17:27;67316.03;;;5.54;100.00
18813;BME280;9534;51.140;6.296;2023-12-20T04:21:30;67312.94;;;5.56;100.00
18813;BME280;9534;51.140;6.296;2023-12-20T04:25:33;67320.72;;;5.61;100.00
18813;BME280;9534;51.140;6.296;2023-12-20T04:29:36;67306.25;;;5.53;100.00
18813;BME280;9534;51.140;6.296;2023-12-20T04:33:41;67318.31;;;5.56;100.00
18813;BME280;9534;51.140;6.296;2023-12-20T04:37:44;67309.53;;;5.53;100.00
18813;BME280;9534;51.140;6.296;2023-12-20T04:41:47;67312.03;;;5.51;100.00
18813;BME280;9534;51.140;6.296;2023-12-20T04:45:51;67314.63;;;5.58;100.00
18813;BME280;9534;51.140;6.296;2023-12-20T04:49:56;67323.41;;;5.61;100.00
18813;BME280;9534;51.140;6.296;2023-12-20T04:53:59;67335.19;;;5.69;100.00
18813;BME280;9534;51.140;6.296;2023-12-20T04:58:02;67329.22;;;5.68;100.00
18813;BME280;9534;51.140;6.296;2023-12-20T05:02:06;67343.56;;;5.74;100.00
18813;BME280;9534;51.140;6.296;2023-12-20T05:06:10;67340.44;;;5.76;100.00
18813;BME280;9534;51.140;6.296;2023-12-20T05:10:15;67346.13;;;5.81;100.00
18813;BME280;9534;51.140;6.296;2023-12-20T05:14:18;67352.78;;;5.84;100.00
18813;BME280;9534;51.140;6.296;2023-12-20T05:18:22;67347.97;;;5.85;100.00
18813;BME280;9534;51.140;6.296;2023-12-20T05:22:27;67356.06;;;5.85;100.00
18813;BME280;9534;51.140;6.296;2023-12-20T05:26:30;67359.47;;;5.88;100.00
18813;BME280;9534;51.140;6.296;2023-12-20T05:30:35;67356.38;;;5.90;100.00
18813;BME280;9534;51.140;6.296;2023-12-20T05:34:39;67362.06;;;5.95;100.00
18813;BME280;9534;51.140;6.296;2023-12-20T05:38:44;67369.84;;;5.99;100.00
18813;BME280;9534;51.140;6.296;2023-12-20T05:42:47;67374.97;;;6.04;100.00
18813;BME280;9534;51.140;6.296;2023-12-20T05:46:53;67367.31;;;6.02;100.00
18813;BME280;9534;51.140;6.296;2023-12-20T05:50:56;67368.28;;;6.00;100.00
18813;BME280;9534;51.140;6.296;2023-12-20T05:55:01;67372.44;;;6.06;100.00
18813;BME280;9534;51.140;6.296;2023-12-20T05:59:05;67380.09;;;6.08;100.00
18813;BME280;9534;51.140;6.296;2023-12-20T06:03:08;67382.50;;;6.13;100.00
18813;BME280;9534;51.140;6.296;2023-12-20T06:07:14;67385.34;;;6.15;100.00
18813;BME280;9534;51.140;6.296;2023-12-20T06:11:19;67388.19;;;6.17;100.00
18813;BME280;9534;51.140;6.296;2023-12-20T06:15:21;67396.56;;;6.22;100.00
18813;BME280;9534;51.140;6.296;2023-12-20T06:19:25;67402.22;;;6.27;100.00
18813;BME280;9534;51.140;6.296;2023-12-20T06:23:28;67398.41;;;6.26;100.00
18813;BME280;9534;51.140;6.296;2023-12-20T06:27:32;67394.16;;;6.27;100.00
18813;BME280;9534;51.140;6.296;2023-12-20T06:31:35;67402.94;;;6.30;100.00
18813;BME280;9534;51.140;6.296;2023-12-20T06:35:38;67397.44;;;6.28;100.00
18813;BME280;9534;51.140;6.296;2023-12-20T06:39:41;67394.16;;;6.27;100.00
18813;BME280;9534;51.140;6.296;2023-12-20T06:43:48;67407.38;;;6.32;100.00
18813;BME280;9534;51.140;6.296;2023-12-20T06:47:52;67412.31;;;6.34;100.00
18813;BME280;9534;51.140;6.296;2023-12-20T06:51:56;67412.31;;;6.34;100.00
18813;BME280;9534;51.140;6.296;2023-12-20T06:55:59;67406.94;;;6.34;100.00
18813;BME280;9534;51.140;6.296;2023-12-20T07:00:08;67405.22;;;6.32;100.00
18813;BME280;9534;51.140;6.296;2023-12-20T07:04:14;67400.97;;;6.33;100.00
18813;BME280;9534;51.140;6.296;2023-12-20T07:08:18;67404.66;;;6.32;100.00
18813;BME280;9534;51.140;6.296;2023-12-20T07:12:21;67406.78;;;6.31;100.00
18813;BME280;9534;51.140;6.296;2023-12-20T07:16:29;67401.25;;;6.29;100.00
18813;BME280;9534;51.140;6.296;2023-12-20T07:20:32;67396.13;;;6.24;100.00
18813;BME280;9534;51.140;6.296;2023-12-20T07:24:37;67391.59;;;6.20;100.00
18813;BME280;9534;51.140;6.296;2023-12-20T07:28:40;67383.94;;;6.18;100.00
18813;BME280;9534;51.140;6.296;2023-12-20T07:32:45;67372.56;;;6.09;100.00
18813;BME280;9534;51.140;6.296;2023-12-20T07:36:49;67373.69;;;6.00;100.00
18813;BME280;9534;51.140;6.296;2023-12-20T07:40:52;67359.38;;;5.95;100.00
18813;BME280;9534;51.140;6.296;2023-12-20T07:44:57;67357.50;;;5.91;100.00
18813;BME280;9534;51.140;6.296;2023-12-20T07:49:01;67349.94;;;5.82;100.00
18813;BME280;9534;51.140;6.296;2023-12-20T07:53:04;67339.00;;;5.70;100.00
18813;BME280;9534;51.140;6.296;2023-12-20T07:57:08;67340.44;;;5.76;100.00
18813;BME280;9534;51.140;6.296;2023-12-20T08:01:15;67349.78;;;5.79;100.00
18813;BME280;9534;51.140;6.296;2023-12-20T08:05:20;67352.94;;;5.87;100.00
18813;BME280;9534;51.140;6.296;2023-12-20T08:09:23;67348.41;;;5.83;100.00
18813;BME280;9534;51.140;6.296;2023-12-20T08:13:26;67343.13;;;5.76;100.00
18813;BME280;9534;51.140;6.296;2023-12-20T08:17:31;67348.41;;;5.83;100.00
18813;BME280;9534;51.140;6.296;2023-12-20T08:21:36;67352.56;;;5.89;100.00
18813;BME280;9534;51.140;6.296;2023-12-20T08:25:39;67355.78;;;5.89;100.00
18813;BME280;9534;51.140;6.296;2023-12-20T08:29:44;67373.41;;;6.05;100.00
18813;BME280;9534;51.140;6.296;2023-12-20T08:33:48;67382.91;;;6.11;100.00
18813;BME280;9534;51.140;6.296;2023-12-20T08:37:52;67384.75;;;6.14;100.00
18813;BME280;9534;51.140;6.296;2023-12-20T08:41:58;67379.09;;;6.10;100.00
18813;BME280;9534;51.140;6.296;2023-12-20T08:46:01;67374.13;;;6.08;100.00
18813;BME280;9534;51.140;6.296;2023-12-20T08:50:05;67381.78;;;6.10;100.00
18813;BME280;9534;51.140;6.296;2023-12-20T08:54:10;67379.66;;;6.10;100.00
18813;BME280;9534;51.140;6.296;2023-12-20T08:58:15;67381.94;;;6.12;100.00
18813;BME280;9534;51.140;6.296;2023-12-20T09:02:18;67381.34;;;6.12;100.00
18813;BME280;9534;51.140;6.296;2023-12-20T09:06:22;67391.44;;;6.18;100.00
18813;BME280;9534;51.140;6.296;2023-12-20T09:10:27;67389.31;;;6.18;100.00
18813;BME280;9534;51.140;6.296;2023-12-20T09:14:30;67398.09;;;6.21;100.00
18813;BME280;9534;51.140;6.296;2023-12-20T09:18:35;67395.72;;;6.26;100.00
18813;BME280;9534;51.140;6.296;2023-12-20T09:22:38;67393.03;;;6.26;100.00
18813;BME280;9534;51.140;6.296;2023-12-20T09:26:42;67401.81;;;6.29;100.00
18813;BME280;9534;51.140;6.296;2023-12-20T09:30:46;67406.38;;;6.33;100.00
18813;BME280;9534;51.140;6.296;2023-12-20T09:34:50;67414.50;;;6.43;100.00
18813;BME280;9534;51.140;6.296;2023-12-20T09:38:54;67420.00;;;6.45;100.00
18813;BME280;9534;51.140;6.296;2023-12-20T09:43:02;67422.59;;;6.52;100.00
18813;BME280;9534;51.140;6.296;2023-12-20T09:47:08;67438.19;;;6.61;100.00
18813;BME280;9534;51.140;6.296;2023-12-20T09:51:13;67439.75;;;6.60;100.00
18813;BME280;9534;51.140;6.296;2023-12-20T09:55:17;67429.81;;;6.56;100.00
18813;BME280;9534;51.140;6.296;2023-12-20T09:59:22;67441.63;;;6.64;100.00
18813;BME280;9534;51.140;6.296;2023-12-20T10:03:26;67449.84;;;6.67;100.00
18813;BME280;9534;51.140;6.296;2023-12-20T10:07:29;67443.88;;;6.66;100.00
18813;BME280;9534;51.140;6.296;2023-12-20T10:11:32;67437.06;;;6.60;100.00
18813;BME280;9534;51.140;6.296;2023-12-20T10:15:36;67438.19;;;6.61;100.00
18813;BME280;9534;51.140;6.296;2023-12-20T10:19:40;67435.94;;;6.59;100.00
18813;BME280;9534;51.140;6.296;2023-12-20T10:23:43;67439.03;;;6.57;100.00
18813;BME280;9534;51.140;6.296;2023-12-20T10:27:46;67434.22;;;6.58;100.00
18813;BME280;9534;51.140;6.296;2023-12-20T10:31:51;67439.34;;;6.62;100.00
18813;BME280;9534;51.140;6.296;2023-12-20T10:35:59;67438.19;;;6.61;100.00
18813;BME280;9534;51.140;6.296;2023-12-20T10:40:03;67447.31;;;6.69;100.00
18813;BME280;9534;51.140;6.296;2023-12-20T10:44:07;67456.41;;;6.77;100.00
18813;BME280;9534;51.140;6.296;2023-12-20T10:48:15;67460.53;;;6.83;100.00
18813;BME280;9534;51.140;6.296;2023-12-20T10:52:19;67461.25;;;6.86;100.00
18813;BME280;9534;51.140;6.296;2023-12-20T10:56:22;67470.47;;;6.87;100.00
18813;BME280;9534;51.140;6.296;2023-12-20T11:00:27;67468.34;;;6.88;100.00
18813;BME280;9534;51.140;6.296;2023-12-20T11:04:37;67475.00;;;6.91;100.00
18813;BME280;9534;51.140;6.296;2023-12-20T11:08:44;67468.34;;;6.88;100.00
18813;BME280;9534;51.140;6.296;2023-12-20T11:12:51;67466.47;;;6.84;100.00
18813;BME280;9534;51.140;6.296;2023-12-20T11:17:05;67468.19;;;6.85;100.00
18813;BME280;9534;51.140;6.296;2023-12-20T11:21:10;67463.94;;;6.86;100.00
18813;BME280;9534;51.140;6.296;2023-12-20T11:25:16;67464.66;;;6.89;100.00
18813;BME280;9534;51.140;6.296;2023-12-20T11:29:32;67475.72;;;6.94;100.00
18813;BME280;9534;51.140;6.296;2023-12-20T11:33:37;67471.75;;;6.91;100.00
18813;BME280;9534;51.140;6.296;2023-12-20T11:37:44;67463.81;;;6.93;100.00
18813;BME280;9534;51.140;6.296;2023-12-20T11:41:49;67470.19;;;6.92;100.00
18813;BME280;9534;51.140;6.296;2023-12-20T11:45:52;67463.22;;;6.83;100.00
18813;BME280;9534;51.140;6.296;2023-12-20T11:49:56;67453.00;;;6.74;100.00
18813;BME280;9534;51.140;6.296;2023-12-20T11:54:01;67451.84;;;6.73;100.00
18813;BME280;9534;51.140;6.296;2023-12-20T11:58:06;67445.75;;;6.70;100.00
18813;BME280;9534;51.140;6.296;2023-12-20T12:02:11;67439.66;;;6.67;100.00
18813;BME280;9534;51.140;6.296;2023-12-20T12:06:15;67453.25;;;6.70;100.00
18813;BME280;9534;51.140;6.296;2023-12-20T12:10:20;67443.47;;;6.68;100.00
18813;BME280;9534;51.140;6.296;2023-12-20T12:14:23;67450.13;;;6.72;100.00
18813;BME280;9534;51.140;6.296;2023-12-20T12:18:27;67456.41;;;6.77;100.00
18813;BME280;9534;51.140;6.296;2023-12-20T12:22:30;67465.91;;;6.83;100.00
18813;BME280;9534;51.140;6.296;2023-12-20T12:26:36;67468.91;;;6.88;100.00
18813;BME280;9534;51.140;6.296;2023-12-20T12:30:40;67469.19;;;6.93;100.00
18813;BME280;9534;51.140;6.296;2023-12-20T12:34:54;67469.78;;;6.94;100.00
18813;BME280;9534;51.140;6.296;2023-12-20T12:38:58;67470.06;;;6.89;100.00
18813;BME280;9534;51.140;6.296;2023-12-20T12:43:03;67469.47;;;6.89;100.00
18813;BME280;9534;51.140;6.296;2023-12-20T12:47:07;67467.78;;;6.87;100.00
18813;BME280;9534;51.140;6.296;2023-12-20T12:51:11;67476.84;;;6.95;100.00
18813;BME280;9534;51.140;6.296;2023-12-20T12:55:16;67478.00;;;6.96;100.00
18813;BME280;9534;51.140;6.296;2023-12-20T12:59:20;67483.13;;;7.01;100.00
18813;BME280;9534;51.140;6.296;2023-12-20T13:03:26;67487.50;;;7.02;100.00
18813;BME280;9534;51.140;6.296;2023-12-20T13:07:29;67483.25;;;7.03;100.00
18813;BME280;9534;51.140;6.296;2023-12-20T13:11:33;67484.41;;;7.04;100.00
18813;BME280;9534;51.140;6.296;2023-12-20T13:15:38;67493.63;;;7.05;100.00
18813;BME280;9534;51.140;6.296;2023-12-20T13:19:42;67485.94;;;7.03;100.00
18813;BME280;9534;51.140;6.296;2023-12-20T13:23:48;67483.69;;;7.01;100.00
18813;BME280;9534;51.140;6.296;2023-12-20T13:27:53;67481.41;;;6.99;100.00
18813;BME280;9534;51.140;6.296;2023-12-20T13:31:58;67479.13;;;6.97;100.00
18813;BME280;9534;51.140;6.296;2023-12-20T13:36:02;67476.28;;;6.95;100.00
18813;BME280;9534;51.140;6.296;2023-12-20T13:40:09;67475.88;;;6.97;100.00
18813;BME280;9534;51.140;6.296;2023-12-20T13:44:13;67489.78;;;7.04;100.00
18813;BME280;9534;51.140;6.296;2023-12-20T13:48:18;67495.06;;;7.11;100.00
18813;BME280;9534;51.140;6.296;2023-12-20T13:52:22;67509.56;;;7.19;100.00
18813;BME280;9534;51.140;6.296;2023-12-20T13:56:28;67514.25;;;7.26;100.00
18813;BME280;9534;51.140;6.296;2023-12-20T14:00:32;67516.69;;;7.30;100.00
18813;BME280;9534;51.140;6.296;2023-12-20T14:04:38;67520.66;;;7.33;100.00
18813;BME280;9534;51.140;6.296;2023-12-20T14:08:45;67518.13;;;7.36;100.00
18813;BME280;9534;51.140;6.296;2023-12-20T14:12:50;67527.63;;;7.42;100.00
18813;BME280;9534;51.140;6.296;2023-12-20T14:16:53;67525.66;;;7.45;100.00
18813;BME280;9534;51.140;6.296;2023-12-20T14:20:58;67539.88;;;7.48;100.00
18813;BME280;9534;51.140;6.296;2023-12-20T14:25:02;67539.03;;;7.52;100.00
18813;BME280;9534;51.140;6.296;2023-12-20T14:29:06;67540.59;;;7.51;100.00
18813;BME280;9534;51.140;6.296;2023-12-20T14:33:11;67539.28;;;7.47;100.00
18813;BME280;9534;51.140;6.296;2023-12-20T14:37:20;67532.63;;;7.44;100.00
18813;BME280;9534;51.140;6.296;2023-12-20T14:41:24;67530.34;;;7.42;100.00
18813;BME280;9534;51.140;6.296;2023-12-20T14:45:32;67528.78;;;7.43;100.00
18813;BME280;9534;51.140;6.296;2023-12-20T14:49:37;67525.91;;;7.40;100.00
18813;BME280;9534;51.140;6.296;2023-12-20T14:53:42;67532.63;;;7.44;100.00
18813;BME280;9534;51.140;6.296;2023-12-20T14:57:47;67531.78;;;7.48;100.00
18813;BME280;9534;51.140;6.296;2023-12-20T15:01:53;67541.00;;;7.49;100.00
18813;BME280;9534;51.140;6.296;2023-12-20T15:05:58;67538.88;;;7.49;100.00
18813;BME280;9534;51.140;6.296;2023-12-20T15:10:07;67542.84;;;7.53;100.00
18813;BME280;9534;51.140;6.296;2023-12-20T15:14:11;67539.75;;;7.55;100.00
18813;BME280;9534;51.140;6.296;2023-12-20T15:18:19;67550.41;;;7.62;100.00
18813;BME280;9534;51.140;6.296;2023-12-20T15:22:24;67549.69;;;7.59;100.00
18813;BME280;9534;51.140;6.296;2023-12-20T15:26:32;67548.53;;;7.58;100.00
18813;BME280;9534;51.140;6.296;2023-12-20T15:30:42;67548.13;;;7.60;100.00
18813;BME280;9534;51.140;6.296;2023-12-20T15:34:46;67547.13;;;7.61;100.00
18813;BME280;9534;51.140;6.296;2023-12-20T15:38:50;67549.09;;;7.58;100.00
18813;BME280;9534;51.140;6.296;2023-12-20T15:43:00;67547.25;;;7.54;100.00
18813;BME280;9534;51.140;6.296;2023-12-20T15:47:04;67548.53;;;7.58;100.00
18813;BME280;9534;51.140;6.296;2023-12-20T15:51:08;67542.00;;;7.57;100.00
18813;BME280;9534;51.140;6.296;2023-12-20T15:55:12;67547.97;;;7.57;100.00
18813;BME280;9534;51.140;6.296;2023-12-20T15:59:17;67549.09;;;7.58;100.00
18813;BME280;9534;51.140;6.296;2023-12-20T16:03:21;67558.78;;;7.67;100.00
18813;BME280;9534;51.140;6.296;2023-12-20T16:07:26;67558.78;;;7.67;100.00
18813;BME280;9534;51.140;6.296;2023-12-20T16:11:32;67565.03;;;7.72;100.00
18813;BME280;9534;51.140;6.296;2023-12-20T16:15:38;67566.75;;;7.74;100.00
18813;BME280;9534;51.140;6.296;2023-12-20T16:19:42;67568.59;;;7.78;100.00
18813;BME280;9534;51.140;6.296;2023-12-20T16:23:45;67561.94;;;7.74;100.00
18813;BME280;9534;51.140;6.296;2023-12-20T16:27:48;67568.59;;;7.78;100.00
18813;BME280;9534;51.140;6.296;2023-12-20T16:31:53;67565.91;;;7.78;100.00
18813;BME280;9534;51.140;6.296;2023-12-20T16:35:57;67572.44;;;7.79;100.00
18813;BME280;9534;51.140;6.296;2023-12-20T16:40:00;67574.16;;;7.80;100.00
18813;BME280;9534;51.140;6.296;2023-12-20T16:44:04;67572.44;;;7.79;100.00
18813;BME280;9534;51.140;6.296;2023-12-20T16:48:09;67578.53;;;7.82;100.00
18813;BME280;9534;51.140;6.296;2023-12-20T16:52:14;67578.72;;;7.84;100.00
18813;BME280;9534;51.140;6.296;2023-12-20T16:56:17;67570.75;;;7.87;100.00
18813;BME280;9534;51.140;6.296;2023-12-20T17:00:22;67585.69;;;7.93;100.00
18813;BME280;9534;51.140;6.296;2023-12-20T17:04:29;67599.63;;;8.00;100.00
18813;BME280;9534;51.140;6.296;2023-12-20T17:08:35;67597.06;;;8.03;100.00
18813;BME280;9534;51.140;6.296;2023-12-20T17:12:38;67597.78;;;8.06;100.00
18813;BME280;9534;51.140;6.296;2023-12-20T17:16:45;67607.72;;;8.10;100.00
18813;BME280;9534;51.140;6.296;2023-12-20T17:20:53;67602.34;;;8.10;100.00
18813;BME280;9534;51.140;6.296;2023-12-20T17:24:57;67612.28;;;8.14;100.00
18813;BME280;9534;51.140;6.296;2023-12-20T17:29:01;67608.44;;;8.13;100.00
18813;BME280;9534;51.140;6.296;2023-12-20T17:33:05;67614.00;;;8.15;100.00
18813;BME280;9534;51.140;6.296;2023-12-20T17:37:12;67614.00;;;8.15;100.00
18813;BME280;9534;51.140;6.296;2023-12-20T17:41:17;67616.44;;;8.20;100.00
18813;BME280;9534;51.140;6.296;2023-12-20T17:45:24;67620.25;;;8.21;100.00
18813;BME280;9534;51.140;6.296;2023-12-20T17:49:30;67616.44;;;8.20;100.00
18813;BME280;9534;51.140;6.296;2023-12-20T17:53:37;67625.97;;;8.26;100.00
18813;BME280;9534;51.140;6.296;2023-12-20T17:57:41;67624.25;;;8.24;100.00
18813;BME280;9534;51.140;6.296;2023-12-20T18:01:45;67628.81;;;8.28;100.00
18813;BME280;9534;51.140;6.296;2023-12-20T18:05:48;67626.69;;;8.29;100.00
18813;BME280;9534;51.140;6.296;2023-12-20T18:09:56;67627.41;;;8.32;100.00
18813;BME280;9534;51.140;6.296;2023-12-20T18:14:03;67631.41;;;8.35;100.00
18813;BME280;9534;51.140;6.296;2023-12-20T18:18:06;67635.22;;;8.36;100.00
18813;BME280;9534;51.140;6.296;2023-12-20T18:22:13;67628.56;;;8.33;100.00
18813;BME280;9534;51.140;6.296;2023-12-20T18:26:20;67639.22;;;8.40;100.00
18813;BME280;9534;51.140;6.296;2023-12-20T18:30:23;67640.94;;;8.41;100.00
18813;BME280;9534;51.140;6.296;2023-12-20T18:34:28;67642.06;;;8.42;100.00
18813;BME280;9534;51.140;6.296;2023-12-20T18:38:38;67642.50;;;8.40;100.00
18813;BME280;9534;51.140;6.296;2023-12-20T18:42:45;67653.75;;;8.48;100.00
18813;BME280;9534;51.140;6.296;2023-12-20T18:46:49;67648.75;;;8.46;100.00
18813;BME280;9534;51.140;6.296;2023-12-20T18:50:53;67647.75;;;8.47;100.00
18813;BME280;9534;51.140;6.296;2023-12-20T18:54:57;67652.75;;;8.49;100.00
18813;BME280;9534;51.140;6.296;2023-12-20T18:59:05;67662.44;;;8.58;100.00
18813;BME280;9534;51.140;6.296;2023-12-20T19:03:11;67659.03;;;8.55;100.00
18813;BME280;9534;51.140;6.296;2023-12-20T19:07:14;67649.78;;;8.54;100.00
18813;BME280;9534;51.140;6.296;2023-12-20T19:11:17;67660.59;;;8.54;100.00
18813;BME280;9534;51.140;6.296;2023-12-20T19:15:22;67659.59;;;8.55;100.00
18813;BME280;9534;51.140;6.296;2023-12-20T19:19:27;67666.97;;;8.61;100.00
18813;BME280;9534;51.140;6.296;2023-12-20T19:23:31;67661.56;;;8.61;100.00
18813;BME280;9534;51.140;6.296;2023-12-20T19:27:35;67668.13;;;8.62;100.00
18813;BME280;9534;51.140;6.296;2023-12-20T19:31:41;67666.13;;;8.65;100.00
18813;BME280;9534;51.140;6.296;2023-12-20T19:35:45;67668.41;;;8.67;100.00
18813;BME280;9534;51.140;6.296;2023-12-20T19:39:49;67666.72;;;8.66;100.00
18813;BME280;9534;51.140;6.296;2023-12-20T19:43:54;67664.28;;;8.61;100.00
18813;BME280;9534;51.140;6.296;2023-12-20T19:48:03;67665.28;;;8.60;100.00
18813;BME280;9534;51.140;6.296;2023-12-20T19:52:10;67666.41;;;8.61;100.00
18813;BME280;9534;51.140;6.296;2023-12-20T19:56:15;67665.84;;;8.60;100.00
18813;BME280;9534;51.140;6.296;2023-12-20T20:00:20;67666.13;;;8.65;100.00
18813;BME280;9534;51.140;6.296;2023-12-20T20:04:25;67665.84;;;8.60;100.00
18813;BME280;9534;51.140;6.296;2023-12-20T20:08:32;67651.34;;;8.53;100.00
18813;BME280;9534;51.140;6.296;2023-12-20T20:12:37;67649.63;;;8.51;100.00
18813;BME280;9534;51.140;6.296;2023-12-20T20:16:41;67642.66;;;8.43;100.00
18813;BME280;9534;51.140;6.296;2023-12-20T20:20:49;67643.78;;;8.44;100.00
18813;BME280;9534;51.140;6.296;2023-12-20T20:24:53;67644.94;;;8.45;100.00
18813;BME280;9534;51.140;6.296;2023-12-20T20:28:57;67644.50;;;8.47;100.00
18813;BME280;9534;51.140;6.296;2023-12-20T20:33:04;67643.78;;;8.44;100.00
18813;BME280;9534;51.140;6.296;2023-12-20T20:37:11;67645.34;;;8.43;100.00
18813;BME280;9534;51.140;6.296;2023-12-20T20:41:18;67637.66;;;8.41;100.00
18813;BME280;9534;51.140;6.296;2023-12-20T20:45:22;67647.63;;;8.45;100.00
18813;BME280;9534;51.140;6.296;2023-12-20T20:49:30;67648.75;;;8.46;100.00
18813;BME280;9534;51.140;6.296;2023-12-20T20:53:38;67651.47;;;8.46;100.00
18813;BME280;9534;51.140;6.296;2023-12-20T20:57:42;67648.19;;;8.45;100.00
18813;BME280;9534;51.140;6.296;2023-12-20T21:01:51;67647.75;;;8.47;100.00
18813;BME280;9534;51.140;6.296;2023-12-20T21:05:55;67644.50;;;8.47;100.00
18813;BME280;9534;51.140;6.296;2023-12-20T21:10:00;67640.22;;;8.38;100.00
18813;BME280;9534;51.140;6.296;2023-12-20T21:14:04;67632.81;;;8.32;100.00
18813;BME280;9534;51.140;6.296;2023-12-20T21:18:12;67624.97;;;8.27;100.00
18813;BME280;9534;51.140;6.296;2023-12-20T21:22:17;67632.81;;;8.32;100.00
18813;BME280;9534;51.140;6.296;2023-12-20T21:26:22;67621.53;;;8.24;100.00
18813;BME280;9534;51.140;6.296;2023-12-20T21:30:27;67622.84;;;8.28;100.00
18813;BME280;9534;51.140;6.296;2023-12-20T21:34:37;67625.97;;;8.26;100.00
18813;BME280;9534;51.140;6.296;2023-12-20T21:38:44;67628.25;;;8.28;100.00
18813;BME280;9534;51.140;6.296;2023-12-20T21:42:58;67629.41;;;8.29;100.00
18813;BME280;9534;51.140;6.296;2023-12-20T21:47:07;67633.78;;;8.30;100.00
18813;BME280;9534;51.140;6.296;2023-12-20T21:51:13;67628.97;;;8.31;100.00